sensor_id;sensor_type;location;lat;lon;timestamp;P1;durP1;ratioP1;P2;durP2;ratioP2
77085;SDS011;66014;53.134;18.006;2023-11-21T00:02:12;19.10;;;8.90;;
77085;SDS011;66014;53.134;18.006;2023-11-21T00:04:38;18.60;;;9.50;;
77085;SDS011;66014;53.134;18.006;2023-11-21T00:08:07;17.60;;;8.00;;
77085;SDS011;66014;53.134;18.006;2023-11-21T00:10:34;14.70;;;8.40;;
77085;SDS011;66014;53.134;18.006;2023-11-21T00:13:04;15.40;;;8.40;;
77085;SDS011;66014;53.134;18.006;2023-11-21T00:15:32;15.70;;;8.80;;
77085;SDS011;66014;53.134;18.006;2023-11-21T00:17:59;16.00;;;8.60;;
77085;SDS011;66014;53.134;18.006;2023-11-21T00:20:26;14.90;;;7.60;;
77085;SDS011;66014;53.134;18.006;2023-11-21T00:22:52;15.20;;;9.10;;
77085;SDS011;66014;53.134;18.006;2023-11-21T00:25:17;14.40;;;7.90;;
77085;SDS011;66014;53.134;18.006;2023-11-21T00:27:43;14.20;;;7.80;;
77085;SDS011;66014;53.134;18.006;2023-11-21T00:30:09;13.10;;;7.40;;
77085;SDS011;66014;53.134;18.006;2023-11-21T00:32:39;11.20;;;7.00;;
77085;SDS011;66014;53.134;18.006;2023-11-21T00:35:06;13.70;;;7.70;;
77085;SDS011;66014;53.134;18.006;2023-11-21T00:37:32;14.20;;;7.70;;
77085;SDS011;66014;53.134;18.006;2023-11-21T00:39:57;17.40;;;8.50;;
77085;SDS011;66014;53.134;18.006;2023-11-21T00:42:23;13.00;;;7.80;;
77085;SDS011;66014;53.134;18.006;2023-11-21T00:44:49;14.50;;;8.00;;
77085;SDS011;66014;53.134;18.006;2023-11-21T00:47:15;15.20;;;8.70;;
77085;SDS011;66014;53.134;18.006;2023-11-21T00:49:45;16.80;;;8.40;;
77085;SDS011;66014;53.134;18.006;2023-11-21T00:52:13;16.70;;;8.80;;
77085;SDS011;66014;53.134;18.006;2023-11-21T00:54:38;13.90;;;8.40;;
77085;SDS011;66014;53.134;18.006;2023-11-21T00:57:10;14.50;;;7.90;;
77085;SDS011;66014;53.134;18.006;2023-11-21T00:59:42;14.30;;;8.20;;
77085;SDS011;66014;53.134;18.006;2023-11-21T01:02:17;12.30;;;7.30;;
77085;SDS011;66014;53.134;18.006;2023-11-21T01:04:46;14.50;;;7.70;;
77085;SDS011;66014;53.134;18.006;2023-11-21T01:07:17;14.50;;;7.60;;
77085;SDS011;66014;53.134;18.006;2023-11-21T01:09:46;12.40;;;7.10;;
77085;SDS011;66014;53.134;18.006;2023-11-21T01:12:14;13.10;;;7.70;;
77085;SDS011;66014;53.134;18.006;2023-11-21T01:14:44;14.20;;;7.10;;
77085;SDS011;66014;53.134;18.006;2023-11-21T01:17:29;14.80;;;7.20;;
77085;SDS011;66014;53.134;18.006;2023-11-21T01:19:54;13.50;;;7.60;;
77085;SDS011;66014;53.134;18.006;2023-11-21T01:25:49;13.70;;;7.40;;
77085;SDS011;66014;53.134;18.006;2023-11-21T01:39:11;17.00;;;8.60;;
77085;SDS011;66014;53.134;18.006;2023-11-21T01:42:15;15.30;;;8.50;;
77085;SDS011;66014;53.134;18.006;2023-11-21T01:44:43;13.20;;;7.30;;
77085;SDS011;66014;53.134;18.006;2023-11-21T01:54:18;16.10;;;8.10;;
77085;SDS011;66014;53.134;18.006;2023-11-21T02:00:47;15.50;;;7.80;;
77085;SDS011;66014;53.134;18.006;2023-11-21T02:03:22;14.50;;;7.60;;
77085;SDS011;66014;53.134;18.006;2023-11-21T02:08:39;14.70;;;8.40;;
77085;SDS011;66014;53.134;18.006;2023-11-21T02:11:12;15.90;;;8.70;;
77085;SDS011;66014;53.134;18.006;2023-11-21T02:24:46;17.90;;;9.20;;
77085;SDS011;66014;53.134;18.006;2023-11-21T02:27:12;20.40;;;10.20;;
77085;SDS011;66014;53.134;18.006;2023-11-21T02:33:15;23.20;;;11.10;;
77085;SDS011;66014;53.134;18.006;2023-11-21T02:35:45;19.00;;;9.40;;
77085;SDS011;66014;53.134;18.006;2023-11-21T02:38:11;15.10;;;8.20;;
77085;SDS011;66014;53.134;18.006;2023-11-21T02:40:39;15.00;;;8.70;;
77085;SDS011;66014;53.134;18.006;2023-11-21T02:43:05;15.10;;;8.10;;
77085;SDS011;66014;53.134;18.006;2023-11-21T02:45:31;15.10;;;8.80;;
77085;SDS011;66014;53.134;18.006;2023-11-21T02:47:57;17.80;;;9.20;;
77085;SDS011;66014;53.134;18.006;2023-11-21T02:50:31;17.10;;;9.00;;
77085;SDS011;66014;53.134;18.006;2023-11-21T02:53:02;17.10;;;8.60;;
77085;SDS011;66014;53.134;18.006;2023-11-21T02:55:28;15.30;;;8.00;;
77085;SDS011;66014;53.134;18.006;2023-11-21T02:57:54;16.20;;;9.30;;
77085;SDS011;66014;53.134;18.006;2023-11-21T03:00:22;17.30;;;9.70;;
77085;SDS011;66014;53.134;18.006;2023-11-21T03:02:49;15.30;;;8.90;;
77085;SDS011;66014;53.134;18.006;2023-11-21T03:05:15;14.80;;;9.20;;
77085;SDS011;66014;53.134;18.006;2023-11-21T03:07:44;17.40;;;9.10;;
77085;SDS011;66014;53.134;18.006;2023-11-21T03:10:12;17.00;;;8.40;;
77085;SDS011;66014;53.134;18.006;2023-11-21T03:12:39;15.90;;;8.20;;
77085;SDS011;66014;53.134;18.006;2023-11-21T03:15:06;17.70;;;8.60;;
77085;SDS011;66014;53.134;18.006;2023-11-21T03:17:35;19.40;;;9.70;;
77085;SDS011;66014;53.134;18.006;2023-11-21T03:20:08;15.80;;;7.90;;
77085;SDS011;66014;53.134;18.006;2023-11-21T03:22:36;19.60;;;9.10;;
77085;SDS011;66014;53.134;18.006;2023-11-21T03:25:04;14.50;;;8.40;;
77085;SDS011;66014;53.134;18.006;2023-11-21T03:27:35;16.60;;;8.80;;
77085;SDS011;66014;53.134;18.006;2023-11-21T03:30:02;15.20;;;8.50;;
77085;SDS011;66014;53.134;18.006;2023-11-21T03:32:28;20.00;;;9.80;;
77085;SDS011;66014;53.134;18.006;2023-11-21T03:34:58;19.90;;;10.00;;
77085;SDS011;66014;53.134;18.006;2023-11-21T03:37:31;19.80;;;10.00;;
77085;SDS011;66014;53.134;18.006;2023-11-21T03:39:57;18.60;;;9.80;;
77085;SDS011;66014;53.134;18.006;2023-11-21T03:42:25;17.40;;;9.10;;
77085;SDS011;66014;53.134;18.006;2023-11-21T03:44:52;19.30;;;10.10;;
77085;SDS011;66014;53.134;18.006;2023-11-21T03:47:18;20.40;;;10.30;;
77085;SDS011;66014;53.134;18.006;2023-11-21T03:49:46;21.00;;;10.80;;
77085;SDS011;66014;53.134;18.006;2023-11-21T03:52:13;19.50;;;10.20;;
77085;SDS011;66014;53.134;18.006;2023-11-21T03:54:41;19.30;;;10.30;;
77085;SDS011;66014;53.134;18.006;2023-11-21T04:01:35;23.90;;;9.60;;
77085;SDS011;66014;53.134;18.006;2023-11-21T04:04:03;17.90;;;8.90;;
77085;SDS011;66014;53.134;18.006;2023-11-21T04:06:29;21.80;;;10.20;;
77085;SDS011;66014;53.134;18.006;2023-11-21T04:08:55;23.90;;;10.80;;
77085;SDS011;66014;53.134;18.006;2023-11-21T04:11:21;25.00;;;10.80;;
77085;SDS011;66014;53.134;18.006;2023-11-21T04:13:47;22.90;;;10.50;;
77085;SDS011;66014;53.134;18.006;2023-11-21T04:16:13;20.70;;;10.10;;
77085;SDS011;66014;53.134;18.006;2023-11-21T04:18:38;22.90;;;9.90;;
77085;SDS011;66014;53.134;18.006;2023-11-21T04:21:05;22.30;;;10.90;;
77085;SDS011;66014;53.134;18.006;2023-11-21T04:23:31;19.80;;;10.90;;
77085;SDS011;66014;53.134;18.006;2023-11-21T04:25:57;26.30;;;11.20;;
77085;SDS011;66014;53.134;18.006;2023-11-21T04:28:23;20.00;;;10.40;;
77085;SDS011;66014;53.134;18.006;2023-11-21T04:30:52;21.80;;;9.50;;
77085;SDS011;66014;53.134;18.006;2023-11-21T04:33:18;20.50;;;9.80;;
77085;SDS011;66014;53.134;18.006;2023-11-21T04:35:45;25.60;;;10.50;;
77085;SDS011;66014;53.134;18.006;2023-11-21T04:38:12;20.00;;;10.50;;
77085;SDS011;66014;53.134;18.006;2023-11-21T04:40:38;24.30;;;10.50;;
77085;SDS011;66014;53.134;18.006;2023-11-21T04:43:05;21.60;;;10.50;;
77085;SDS011;66014;53.134;18.006;2023-11-21T04:45:31;21.80;;;10.90;;
77085;SDS011;66014;53.134;18.006;2023-11-21T04:47:57;19.90;;;10.40;;
77085;SDS011;66014;53.134;18.006;2023-11-21T04:50:23;19.70;;;9.80;;
77085;SDS011;66014;53.134;18.006;2023-11-21T04:52:49;19.20;;;9.70;;
77085;SDS011;66014;53.134;18.006;2023-11-21T04:55:15;19.90;;;9.70;;
77085;SDS011;66014;53.134;18.006;2023-11-21T04:57:40;23.40;;;10.30;;
77085;SDS011;66014;53.134;18.006;2023-11-21T05:00:09;23.70;;;10.10;;
77085;SDS011;66014;53.134;18.006;2023-11-21T05:02:38;22.90;;;9.40;;
77085;SDS011;66014;53.134;18.006;2023-11-21T05:05:06;20.40;;;9.60;;
77085;SDS011;66014;53.134;18.006;2023-11-21T05:07:33;20.30;;;9.70;;
77085;SDS011;66014;53.134;18.006;2023-11-21T05:10:00;18.30;;;9.60;;
77085;SDS011;66014;53.134;18.006;2023-11-21T05:12:30;18.10;;;9.50;;
77085;SDS011;66014;53.134;18.006;2023-11-21T05:15:03;21.60;;;9.70;;
77085;SDS011;66014;53.134;18.006;2023-11-21T05:17:38;22.80;;;9.80;;
77085;SDS011;66014;53.134;18.006;2023-11-21T05:20:08;24.50;;;11.70;;
77085;SDS011;66014;53.134;18.006;2023-11-21T05:22:36;19.70;;;9.60;;
77085;SDS011;66014;53.134;18.006;2023-11-21T05:25:04;22.30;;;12.90;;
77085;SDS011;66014;53.134;18.006;2023-11-21T05:27:31;21.80;;;9.60;;
77085;SDS011;66014;53.134;18.006;2023-11-21T05:29:56;21.70;;;9.90;;
77085;SDS011;66014;53.134;18.006;2023-11-21T05:32:23;19.40;;;9.20;;
77085;SDS011;66014;53.134;18.006;2023-11-21T05:34:51;21.80;;;10.00;;
77085;SDS011;66014;53.134;18.006;2023-11-21T05:37:18;22.20;;;9.40;;
77085;SDS011;66014;53.134;18.006;2023-11-21T05:39:43;22.70;;;9.20;;
77085;SDS011;66014;53.134;18.006;2023-11-21T05:42:09;18.60;;;9.40;;
77085;SDS011;66014;53.134;18.006;2023-11-21T05:44:41;21.40;;;9.90;;
77085;SDS011;66014;53.134;18.006;2023-11-21T05:47:09;22.00;;;9.10;;
77085;SDS011;66014;53.134;18.006;2023-11-21T05:49:38;21.70;;;9.90;;
77085;SDS011;66014;53.134;18.006;2023-11-21T05:52:04;28.80;;;12.70;;
77085;SDS011;66014;53.134;18.006;2023-11-21T05:54:31;24.70;;;11.30;;
77085;SDS011;66014;53.134;18.006;2023-11-21T05:56:58;24.70;;;11.40;;
77085;SDS011;66014;53.134;18.006;2023-11-21T05:59:24;27.20;;;11.70;;
77085;SDS011;66014;53.134;18.006;2023-11-21T06:01:50;22.80;;;11.10;;
77085;SDS011;66014;53.134;18.006;2023-11-21T06:04:16;23.60;;;10.50;;
77085;SDS011;66014;53.134;18.006;2023-11-21T06:06:43;23.80;;;11.60;;
77085;SDS011;66014;53.134;18.006;2023-11-21T06:09:09;23.40;;;12.80;;
77085;SDS011;66014;53.134;18.006;2023-11-21T06:11:37;29.90;;;15.60;;
77085;SDS011;66014;53.134;18.006;2023-11-21T06:14:03;23.70;;;14.90;;
77085;SDS011;66014;53.134;18.006;2023-11-21T06:16:29;26.00;;;11.60;;
77085;SDS011;66014;53.134;18.006;2023-11-21T06:18:55;20.20;;;10.50;;
77085;SDS011;66014;53.134;18.006;2023-11-21T06:21:22;21.20;;;11.20;;
77085;SDS011;66014;53.134;18.006;2023-11-21T06:23:48;24.30;;;10.40;;
77085;SDS011;66014;53.134;18.006;2023-11-21T06:26:14;34.60;;;15.10;;
77085;SDS011;66014;53.134;18.006;2023-11-21T06:28:40;40.20;;;19.50;;
77085;SDS011;66014;53.134;18.006;2023-11-21T06:31:06;55.50;;;23.30;;
77085;SDS011;66014;53.134;18.006;2023-11-21T06:33:32;99.20;;;38.50;;
77085;SDS011;66014;53.134;18.006;2023-11-21T06:35:58;42.60;;;18.80;;
77085;SDS011;66014;53.134;18.006;2023-11-21T06:38:25;36.60;;;17.50;;
77085;SDS011;66014;53.134;18.006;2023-11-21T06:40:56;28.30;;;14.80;;
77085;SDS011;66014;53.134;18.006;2023-11-21T06:43:24;19.60;;;10.20;;
77085;SDS011;66014;53.134;18.006;2023-11-21T06:45:50;24.90;;;11.10;;
77085;SDS011;66014;53.134;18.006;2023-11-21T06:48:18;34.30;;;13.70;;
77085;SDS011;66014;53.134;18.006;2023-11-21T06:50:44;24.80;;;10.70;;
77085;SDS011;66014;53.134;18.006;2023-11-21T06:53:10;33.70;;;11.70;;
77085;SDS011;66014;53.134;18.006;2023-11-21T06:55:36;27.00;;;11.40;;
77085;SDS011;66014;53.134;18.006;2023-11-21T06:58:02;20.40;;;9.90;;
77085;SDS011;66014;53.134;18.006;2023-11-21T07:00:28;18.40;;;8.90;;
77085;SDS011;66014;53.134;18.006;2023-11-21T07:02:55;21.60;;;9.80;;
77085;SDS011;66014;53.134;18.006;2023-11-21T07:05:22;23.40;;;10.40;;
77085;SDS011;66014;53.134;18.006;2023-11-21T07:07:48;30.90;;;13.40;;
77085;SDS011;66014;53.134;18.006;2023-11-21T07:10:15;67.50;;;25.80;;
77085;SDS011;66014;53.134;18.006;2023-11-21T07:12:42;95.40;;;42.10;;
77085;SDS011;66014;53.134;18.006;2023-11-21T07:15:08;98.60;;;44.70;;
77085;SDS011;66014;53.134;18.006;2023-11-21T07:17:36;41.60;;;22.90;;
77085;SDS011;66014;53.134;18.006;2023-11-21T07:20:03;17.50;;;10.10;;
77085;SDS011;66014;53.134;18.006;2023-11-21T07:22:29;25.10;;;13.70;;
77085;SDS011;66014;53.134;18.006;2023-11-21T07:24:55;18.80;;;10.00;;
77085;SDS011;66014;53.134;18.006;2023-11-21T07:27:24;21.60;;;10.90;;
77085;SDS011;66014;53.134;18.006;2023-11-21T07:29:50;23.10;;;10.10;;
77085;SDS011;66014;53.134;18.006;2023-11-21T07:32:16;16.20;;;8.40;;
77085;SDS011;66014;53.134;18.006;2023-11-21T07:34:42;13.90;;;7.30;;
77085;SDS011;66014;53.134;18.006;2023-11-21T07:37:08;12.80;;;7.40;;
77085;SDS011;66014;53.134;18.006;2023-11-21T07:39:36;13.80;;;7.90;;
77085;SDS011;66014;53.134;18.006;2023-11-21T07:42:02;16.00;;;7.90;;
77085;SDS011;66014;53.134;18.006;2023-11-21T07:44:30;16.80;;;8.00;;
77085;SDS011;66014;53.134;18.006;2023-11-21T07:46:56;14.20;;;7.80;;
77085;SDS011;66014;53.134;18.006;2023-11-21T07:49:25;15.40;;;7.40;;
77085;SDS011;66014;53.134;18.006;2023-11-21T07:51:52;12.40;;;6.90;;
77085;SDS011;66014;53.134;18.006;2023-11-21T07:54:18;16.40;;;9.10;;
77085;SDS011;66014;53.134;18.006;2023-11-21T07:56:44;12.40;;;6.40;;
77085;SDS011;66014;53.134;18.006;2023-11-21T07:59:17;14.20;;;6.70;;
77085;SDS011;66014;53.134;18.006;2023-11-21T08:01:44;14.40;;;7.30;;
77085;SDS011;66014;53.134;18.006;2023-11-21T08:04:11;13.80;;;7.00;;
77085;SDS011;66014;53.134;18.006;2023-11-21T08:06:38;13.20;;;6.50;;
77085;SDS011;66014;53.134;18.006;2023-11-21T08:09:04;17.50;;;7.00;;
77085;SDS011;66014;53.134;18.006;2023-11-21T08:11:30;12.80;;;6.30;;
77085;SDS011;66014;53.134;18.006;2023-11-21T08:13:58;11.80;;;6.80;;
77085;SDS011;66014;53.134;18.006;2023-11-21T08:16:24;14.80;;;7.10;;
77085;SDS011;66014;53.134;18.006;2023-11-21T08:18:50;13.10;;;6.10;;
77085;SDS011;66014;53.134;18.006;2023-11-21T08:21:16;17.40;;;10.50;;
77085;SDS011;66014;53.134;18.006;2023-11-21T08:23:42;10.10;;;5.50;;
77085;SDS011;66014;53.134;18.006;2023-11-21T08:26:08;12.40;;;5.60;;
77085;SDS011;66014;53.134;18.006;2023-11-21T08:28:34;15.40;;;6.80;;
77085;SDS011;66014;53.134;18.006;2023-11-21T08:31:00;18.00;;;8.70;;
77085;SDS011;66014;53.134;18.006;2023-11-21T08:33:36;14.30;;;7.50;;
77085;SDS011;66014;53.134;18.006;2023-11-21T08:36:06;15.30;;;8.20;;
77085;SDS011;66014;53.134;18.006;2023-11-21T08:38:36;14.50;;;6.50;;
77085;SDS011;66014;53.134;18.006;2023-11-21T08:41:06;20.60;;;11.30;;
77085;SDS011;66014;53.134;18.006;2023-11-21T08:43:38;18.30;;;8.70;;
77085;SDS011;66014;53.134;18.006;2023-11-21T08:46:08;16.70;;;8.30;;
77085;SDS011;66014;53.134;18.006;2023-11-21T08:48:37;30.70;;;12.10;;
77085;SDS011;66014;53.134;18.006;2023-11-21T08:51:03;22.70;;;9.60;;
77085;SDS011;66014;53.134;18.006;2023-11-21T08:53:31;15.60;;;7.90;;
77085;SDS011;66014;53.134;18.006;2023-11-21T08:55:56;18.90;;;9.30;;
77085;SDS011;66014;53.134;18.006;2023-11-21T08:58:23;15.50;;;7.70;;
77085;SDS011;66014;53.134;18.006;2023-11-21T09:00:50;17.80;;;10.30;;
77085;SDS011;66014;53.134;18.006;2023-11-21T09:03:46;9.70;;;5.70;;
77085;SDS011;66014;53.134;18.006;2023-11-21T09:06:12;14.50;;;7.60;;
77085;SDS011;66014;53.134;18.006;2023-11-21T09:08:39;19.90;;;9.00;;
77085;SDS011;66014;53.134;18.006;2023-11-21T09:11:07;22.40;;;9.60;;
77085;SDS011;66014;53.134;18.006;2023-11-21T09:13:33;18.60;;;7.50;;
77085;SDS011;66014;53.134;18.006;2023-11-21T09:16:02;14.40;;;6.90;;
77085;SDS011;66014;53.134;18.006;2023-11-21T09:18:32;18.00;;;7.90;;
77085;SDS011;66014;53.134;18.006;2023-11-21T09:21:06;23.00;;;9.50;;
77085;SDS011;66014;53.134;18.006;2023-11-21T09:23:49;21.70;;;10.70;;
77085;SDS011;66014;53.134;18.006;2023-11-21T09:26:40;27.50;;;11.90;;
77085;SDS011;66014;53.134;18.006;2023-11-21T09:29:29;23.80;;;10.50;;
77085;SDS011;66014;53.134;18.006;2023-11-21T09:32:22;22.40;;;10.20;;
77085;SDS011;66014;53.134;18.006;2023-11-21T09:34:59;21.50;;;10.10;;
77085;SDS011;66014;53.134;18.006;2023-11-21T09:37:27;25.70;;;10.90;;
77085;SDS011;66014;53.134;18.006;2023-11-21T09:39:54;33.10;;;17.10;;
77085;SDS011;66014;53.134;18.006;2023-11-21T09:42:25;19.40;;;11.40;;
77085;SDS011;66014;53.134;18.006;2023-11-21T09:45:03;18.50;;;9.10;;
77085;SDS011;66014;53.134;18.006;2023-11-21T09:47:35;14.90;;;7.50;;
77085;SDS011;66014;53.134;18.006;2023-11-21T09:50:04;13.30;;;6.80;;
77085;SDS011;66014;53.134;18.006;2023-11-21T09:52:45;14.60;;;7.00;;
77085;SDS011;66014;53.134;18.006;2023-11-21T09:55:19;13.00;;;7.40;;
77085;SDS011;66014;53.134;18.006;2023-11-21T09:57:50;17.10;;;7.80;;
77085;SDS011;66014;53.134;18.006;2023-11-21T10:00:19;15.20;;;7.20;;
77085;SDS011;66014;53.134;18.006;2023-11-21T10:02:50;12.80;;;6.40;;
77085;SDS011;66014;53.134;18.006;2023-11-21T10:05:18;44.60;;;21.50;;
77085;SDS011;66014;53.134;18.006;2023-11-21T10:07:52;22.50;;;12.90;;
77085;SDS011;66014;53.134;18.006;2023-11-21T10:10:22;19.40;;;10.30;;
77085;SDS011;66014;53.134;18.006;2023-11-21T10:12:51;27.60;;;12.70;;
77085;SDS011;66014;53.134;18.006;2023-11-21T10:15:24;18.00;;;10.40;;
77085;SDS011;66014;53.134;18.006;2023-11-21T10:17:50;19.20;;;9.50;;
77085;SDS011;66014;53.134;18.006;2023-11-21T10:20:27;17.90;;;9.80;;
77085;SDS011;66014;53.134;18.006;2023-11-21T10:22:55;13.30;;;7.90;;
77085;SDS011;66014;53.134;18.006;2023-11-21T10:25:24;52.80;;;27.70;;
77085;SDS011;66014;53.134;18.006;2023-11-21T10:27:55;25.10;;;14.30;;
77085;SDS011;66014;53.134;18.006;2023-11-21T10:30:27;15.50;;;8.20;;
77085;SDS011;66014;53.134;18.006;2023-11-21T10:32:58;15.30;;;7.20;;
77085;SDS011;66014;53.134;18.006;2023-11-21T10:35:43;14.00;;;7.30;;
77085;SDS011;66014;53.134;18.006;2023-11-21T10:38:17;23.10;;;13.30;;
77085;SDS011;66014;53.134;18.006;2023-11-21T10:40:44;15.90;;;8.10;;
77085;SDS011;66014;53.134;18.006;2023-11-21T10:43:12;15.50;;;8.30;;
77085;SDS011;66014;53.134;18.006;2023-11-21T10:45:41;13.40;;;6.70;;
77085;SDS011;66014;53.134;18.006;2023-11-21T10:48:12;16.60;;;8.20;;
77085;SDS011;66014;53.134;18.006;2023-11-21T10:50:43;22.60;;;8.90;;
77085;SDS011;66014;53.134;18.006;2023-11-21T10:53:13;21.40;;;9.00;;
77085;SDS011;66014;53.134;18.006;2023-11-21T10:55:40;32.50;;;17.90;;
77085;SDS011;66014;53.134;18.006;2023-11-21T10:58:06;24.70;;;10.90;;
77085;SDS011;66014;53.134;18.006;2023-11-21T11:00:36;18.90;;;8.80;;
77085;SDS011;66014;53.134;18.006;2023-11-21T11:03:05;21.90;;;10.00;;
77085;SDS011;66014;53.134;18.006;2023-11-21T11:05:39;20.00;;;7.90;;
77085;SDS011;66014;53.134;18.006;2023-11-21T11:08:08;15.70;;;7.50;;
77085;SDS011;66014;53.134;18.006;2023-11-21T11:10:37;23.40;;;9.60;;
77085;SDS011;66014;53.134;18.006;2023-11-21T11:13:04;18.70;;;8.50;;
77085;SDS011;66014;53.134;18.006;2023-11-21T11:15:29;13.40;;;7.10;;
77085;SDS011;66014;53.134;18.006;2023-11-21T11:17:55;16.30;;;8.20;;
77085;SDS011;66014;53.134;18.006;2023-11-21T11:20:29;18.00;;;7.70;;
77085;SDS011;66014;53.134;18.006;2023-11-21T11:23:04;15.10;;;7.00;;
77085;SDS011;66014;53.134;18.006;2023-11-21T11:28:07;11.80;;;6.70;;
77085;SDS011;66014;53.134;18.006;2023-11-21T11:33:44;15.50;;;9.30;;
77085;SDS011;66014;53.134;18.006;2023-11-21T11:39:29;13.20;;;6.60;;
77085;SDS011;66014;53.134;18.006;2023-11-21T11:42:17;14.20;;;7.80;;
77085;SDS011;66014;53.134;18.006;2023-11-21T11:44:57;19.40;;;11.30;;
77085;SDS011;66014;53.134;18.006;2023-11-21T11:47:42;15.50;;;10.20;;
77085;SDS011;66014;53.134;18.006;2023-11-21T11:50:37;14.20;;;7.20;;
77085;SDS011;66014;53.134;18.006;2023-11-21T11:53:12;12.50;;;6.70;;
77085;SDS011;66014;53.134;18.006;2023-11-21T11:59:26;21.00;;;10.40;;
77085;SDS011;66014;53.134;18.006;2023-11-21T12:02:17;22.30;;;9.60;;
77085;SDS011;66014;53.134;18.006;2023-11-21T12:04:55;20.20;;;9.90;;
77085;SDS011;66014;53.134;18.006;2023-11-21T12:07:22;19.90;;;9.40;;
77085;SDS011;66014;53.134;18.006;2023-11-21T12:09:49;13.60;;;7.70;;
77085;SDS011;66014;53.134;18.006;2023-11-21T12:12:15;17.40;;;8.20;;
77085;SDS011;66014;53.134;18.006;2023-11-21T12:14:42;12.70;;;7.00;;
77085;SDS011;66014;53.134;18.006;2023-11-21T12:17:08;14.80;;;7.40;;
77085;SDS011;66014;53.134;18.006;2023-11-21T12:19:36;19.60;;;11.70;;
77085;SDS011;66014;53.134;18.006;2023-11-21T12:22:03;13.90;;;6.80;;
77085;SDS011;66014;53.134;18.006;2023-11-21T12:24:29;13.90;;;7.20;;
77085;SDS011;66014;53.134;18.006;2023-11-21T12:26:55;18.80;;;9.50;;
77085;SDS011;66014;53.134;18.006;2023-11-21T12:29:21;17.40;;;7.50;;
77085;SDS011;66014;53.134;18.006;2023-11-21T12:31:48;13.90;;;6.60;;
77085;SDS011;66014;53.134;18.006;2023-11-21T12:34:15;15.80;;;7.20;;
77085;SDS011;66014;53.134;18.006;2023-11-21T12:36:43;13.80;;;7.30;;
77085;SDS011;66014;53.134;18.006;2023-11-21T12:39:11;18.50;;;9.50;;
77085;SDS011;66014;53.134;18.006;2023-11-21T12:41:36;22.50;;;10.00;;
77085;SDS011;66014;53.134;18.006;2023-11-21T12:44:02;12.50;;;6.90;;
77085;SDS011;66014;53.134;18.006;2023-11-21T12:46:28;13.80;;;7.00;;
77085;SDS011;66014;53.134;18.006;2023-11-21T12:48:56;13.40;;;7.10;;
77085;SDS011;66014;53.134;18.006;2023-11-21T12:51:23;13.40;;;6.70;;
77085;SDS011;66014;53.134;18.006;2023-11-21T12:53:49;12.70;;;6.10;;
77085;SDS011;66014;53.134;18.006;2023-11-21T12:56:15;12.60;;;6.10;;
77085;SDS011;66014;53.134;18.006;2023-11-21T12:58:45;13.70;;;7.00;;
77085;SDS011;66014;53.134;18.006;2023-11-21T13:01:16;20.20;;;9.60;;
77085;SDS011;66014;53.134;18.006;2023-11-21T13:03:48;11.30;;;6.50;;
77085;SDS011;66014;53.134;18.006;2023-11-21T13:06:16;12.90;;;7.40;;
77085;SDS011;66014;53.134;18.006;2023-11-21T13:08:46;30.00;;;10.50;;
77085;SDS011;66014;53.134;18.006;2023-11-21T13:11:11;27.70;;;11.60;;
77085;SDS011;66014;53.134;18.006;2023-11-21T13:13:40;18.90;;;9.60;;
77085;SDS011;66014;53.134;18.006;2023-11-21T13:16:08;25.70;;;10.80;;
77085;SDS011;66014;53.134;18.006;2023-11-21T13:18:35;13.90;;;7.50;;
77085;SDS011;66014;53.134;18.006;2023-11-21T13:21:03;13.90;;;7.30;;
77085;SDS011;66014;53.134;18.006;2023-11-21T13:23:40;17.90;;;9.10;;
77085;SDS011;66014;53.134;18.006;2023-11-21T13:26:07;18.40;;;8.70;;
77085;SDS011;66014;53.134;18.006;2023-11-21T13:28:35;13.60;;;6.70;;
77085;SDS011;66014;53.134;18.006;2023-11-21T13:31:03;14.00;;;6.70;;
77085;SDS011;66014;53.134;18.006;2023-11-21T13:33:49;13.90;;;6.00;;
77085;SDS011;66014;53.134;18.006;2023-11-21T13:36:23;11.50;;;6.90;;
77085;SDS011;66014;53.134;18.006;2023-11-21T13:38:51;11.50;;;5.60;;
77085;SDS011;66014;53.134;18.006;2023-11-21T13:41:19;12.40;;;6.40;;
77085;SDS011;66014;53.134;18.006;2023-11-21T13:43:48;16.00;;;7.70;;
77085;SDS011;66014;53.134;18.006;2023-11-21T13:46:22;8.30;;;5.20;;
77085;SDS011;66014;53.134;18.006;2023-11-21T13:48:49;12.70;;;5.40;;
77085;SDS011;66014;53.134;18.006;2023-11-21T13:51:22;12.50;;;5.40;;
77085;SDS011;66014;53.134;18.006;2023-11-21T13:53:57;16.20;;;8.50;;
77085;SDS011;66014;53.134;18.006;2023-11-21T13:56:25;15.00;;;8.20;;
77085;SDS011;66014;53.134;18.006;2023-11-21T13:58:53;14.30;;;8.10;;
77085;SDS011;66014;53.134;18.006;2023-11-21T14:01:20;12.70;;;6.90;;
77085;SDS011;66014;53.134;18.006;2023-11-21T14:03:58;45.00;;;12.90;;
77085;SDS011;66014;53.134;18.006;2023-11-21T14:06:45;79.30;;;24.80;;
77085;SDS011;66014;53.134;18.006;2023-11-21T14:09:16;46.00;;;18.60;;
77085;SDS011;66014;53.134;18.006;2023-11-21T14:11:57;48.60;;;20.10;;
77085;SDS011;66014;53.134;18.006;2023-11-21T14:14:24;24.40;;;11.50;;
77085;SDS011;66014;53.134;18.006;2023-11-21T14:16:52;17.10;;;8.60;;
77085;SDS011;66014;53.134;18.006;2023-11-21T14:19:21;14.90;;;7.80;;
77085;SDS011;66014;53.134;18.006;2023-11-21T14:21:47;11.80;;;6.10;;
77085;SDS011;66014;53.134;18.006;2023-11-21T14:24:15;19.40;;;9.10;;
77085;SDS011;66014;53.134;18.006;2023-11-21T14:26:44;35.00;;;20.40;;
77085;SDS011;66014;53.134;18.006;2023-11-21T14:29:12;21.40;;;12.10;;
77085;SDS011;66014;53.134;18.006;2023-11-21T14:31:45;17.50;;;12.60;;
77085;SDS011;66014;53.134;18.006;2023-11-21T14:34:12;14.50;;;5.70;;
77085;SDS011;66014;53.134;18.006;2023-11-21T14:36:40;18.30;;;7.10;;
77085;SDS011;66014;53.134;18.006;2023-11-21T14:39:06;15.00;;;7.10;;
77085;SDS011;66014;53.134;18.006;2023-11-21T14:41:36;15.00;;;7.00;;
77085;SDS011;66014;53.134;18.006;2023-11-21T14:44:05;16.70;;;8.10;;
77085;SDS011;66014;53.134;18.006;2023-11-21T14:46:41;32.80;;;13.40;;
77085;SDS011;66014;53.134;18.006;2023-11-21T14:49:12;21.60;;;9.40;;
77085;SDS011;66014;53.134;18.006;2023-11-21T14:51:52;24.90;;;10.30;;
77085;SDS011;66014;53.134;18.006;2023-11-21T14:54:29;28.70;;;14.60;;
77085;SDS011;66014;53.134;18.006;2023-11-21T14:57:05;75.80;;;33.00;;
77085;SDS011;66014;53.134;18.006;2023-11-21T14:59:43;74.40;;;33.40;;
77085;SDS011;66014;53.134;18.006;2023-11-21T15:02:24;34.80;;;18.00;;
77085;SDS011;66014;53.134;18.006;2023-11-21T15:05:12;24.00;;;12.50;;
77085;SDS011;66014;53.134;18.006;2023-11-21T15:07:44;32.30;;;14.70;;
77085;SDS011;66014;53.134;18.006;2023-11-21T15:10:10;39.10;;;20.90;;
77085;SDS011;66014;53.134;18.006;2023-11-21T15:12:40;13.20;;;7.20;;
77085;SDS011;66014;53.134;18.006;2023-11-21T15:15:08;21.50;;;10.50;;
77085;SDS011;66014;53.134;18.006;2023-11-21T15:17:36;18.70;;;10.00;;
77085;SDS011;66014;53.134;18.006;2023-11-21T15:20:02;17.90;;;8.90;;
77085;SDS011;66014;53.134;18.006;2023-11-21T15:22:29;15.70;;;8.60;;
77085;SDS011;66014;53.134;18.006;2023-11-21T15:24:56;11.40;;;7.00;;
77085;SDS011;66014;53.134;18.006;2023-11-21T15:27:33;13.00;;;6.50;;
77085;SDS011;66014;53.134;18.006;2023-11-21T15:29:59;13.10;;;6.40;;
77085;SDS011;66014;53.134;18.006;2023-11-21T15:32:25;16.90;;;8.60;;